createdAt,value
2023-01-30T00:01:43.439Z,26.57
2023-01-30T00:04:12.520Z,27.90
2023-01-30T00:06:41.003Z,25.90
2023-01-30T00:09:10.616Z,27.07
2023-01-30T00:11:37.302Z,27.43
2023-01-30T00:14:04.491Z,25.97
2023-01-30T00:16:31.358Z,25.47
2023-01-30T00:18:58.561Z,27.10
2023-01-30T00:21:25.284Z,25.17
2023-01-30T00:23:52.070Z,29.00
2023-01-30T00:26:18.896Z,26.40
2023-01-30T00:28:45.660Z,24.37
2023-01-30T00:31:12.413Z,24.80
2023-01-30T00:33:39.649Z,27.27
2023-01-30T00:36:07.042Z,27.10
2023-01-30T00:38:33.862Z,28.13
2023-01-30T00:41:00.608Z,28.53
2023-01-30T00:43:46.501Z,28.57
2023-01-30T00:46:39.144Z,22.63
2023-01-30T00:49:05.854Z,28.77
2023-01-30T00:51:32.670Z,26.67
2023-01-30T00:53:59.923Z,27.40
2023-01-30T00:56:26.732Z,28.87
2023-01-30T00:58:53.876Z,28.00
2023-01-30T01:01:20.545Z,28.97
2023-01-30T01:03:47.291Z,29.30
2023-01-30T01:06:14.049Z,30.37
2023-01-30T01:08:41.157Z,26.83
2023-01-30T01:11:07.997Z,28.53
2023-01-30T01:13:34.909Z,30.33
2023-01-30T01:16:01.768Z,28.97
2023-01-30T01:18:28.617Z,30.20
2023-01-30T01:20:55.381Z,29.83
2023-01-30T01:23:22.152Z,29.90
2023-01-30T01:25:48.935Z,29.60
2023-01-30T01:28:15.930Z,28.93
2023-01-30T01:30:42.615Z,30.10
2023-01-30T01:33:09.299Z,29.13
2023-01-30T01:35:41.099Z,29.50
2023-01-30T01:38:08.201Z,28.43
2023-01-30T01:40:53.445Z,30.13
2023-01-30T01:43:26.049Z,29.07
2023-01-30T01:45:58.735Z,26.20
2023-01-30T01:48:32.903Z,28.90
2023-01-30T01:51:05.262Z,28.37
2023-01-30T01:53:48.531Z,28.30
2023-01-30T01:56:18.444Z,27.50
2023-01-30T01:58:51.259Z,29.23
2023-01-30T02:01:18.248Z,26.80
2023-01-30T02:03:50.757Z,25.63
2023-01-30T02:06:19.056Z,25.90
2023-01-30T02:08:54.174Z,25.97
2023-01-30T02:11:39.095Z,24.63
2023-01-30T02:14:07.447Z,25.50
2023-01-30T02:16:35.806Z,30.40
2023-01-30T02:19:03.123Z,29.50
2023-01-30T02:21:51.472Z,29.20
2023-01-30T02:24:43.229Z,27.77
2023-01-30T02:27:19.268Z,30.40
2023-01-30T02:29:59.237Z,31.90
2023-01-30T02:32:50.574Z,29.30
2023-01-30T02:35:41.435Z,28.83
2023-01-30T02:38:08.087Z,31.40
2023-01-30T02:40:57.585Z,33.13
2023-01-30T02:43:40.470Z,37.33
2023-01-30T02:46:19.791Z,31.90
2023-01-30T02:48:47.789Z,33.80
2023-01-30T02:51:20.737Z,35.00
2023-01-30T02:53:48.727Z,35.30
2023-01-30T02:56:15.761Z,35.10
2023-01-30T02:58:49.391Z,35.10
2023-01-30T03:01:51.771Z,35.17
2023-01-30T03:04:58.528Z,33.30
2023-01-30T03:07:35.550Z,34.03
2023-01-30T03:10:14.284Z,35.20
2023-01-30T03:12:58.361Z,39.60
2023-01-30T03:15:41.022Z,31.80
2023-01-30T03:18:08.286Z,33.00
2023-01-30T03:20:39.828Z,35.03
2023-01-30T03:23:06.982Z,35.27
2023-01-30T03:25:35.752Z,34.50
2023-01-30T03:28:03.909Z,35.53
2023-01-30T03:30:30.679Z,31.17
2023-01-30T03:32:57.573Z,34.57
2023-01-30T03:35:24.748Z,33.73
2023-01-30T03:37:51.826Z,30.97
2023-01-30T03:40:18.824Z,31.00
2023-01-30T03:42:45.645Z,31.70
2023-01-30T03:45:13.108Z,26.53
2023-01-30T03:47:40.086Z,28.40
2023-01-30T03:50:07.085Z,25.83
2023-01-30T03:52:36.912Z,24.70
2023-01-30T03:55:04.771Z,24.53
2023-01-30T03:57:31.581Z,26.03
2023-01-30T03:59:58.397Z,24.80
2023-01-30T04:02:26.245Z,23.13
2023-01-30T04:04:53.615Z,22.07
2023-01-30T04:07:20.365Z,22.90
2023-01-30T04:09:47.124Z,23.13
2023-01-30T04:12:14.203Z,24.53
2023-01-30T04:14:41.276Z,23.23
2023-01-30T04:17:08.120Z,24.60
2023-01-30T04:19:34.875Z,21.63
2023-01-30T04:22:01.580Z,24.60
2023-01-30T04:24:28.373Z,23.30
2023-01-30T04:26:55.236Z,22.40
2023-01-30T04:29:22.055Z,22.40
2023-01-30T04:31:48.736Z,22.40
2023-01-30T04:34:15.514Z,22.07
2023-01-30T04:36:42.314Z,23.00
2023-01-30T04:39:09.077Z,23.20
2023-01-30T04:41:35.864Z,25.87
2023-01-30T04:44:02.709Z,23.33
2023-01-30T04:46:29.599Z,22.57
2023-01-30T04:48:56.354Z,22.70
2023-01-30T04:51:23.064Z,21.70
2023-01-30T04:53:49.788Z,22.00
2023-01-30T04:56:16.541Z,20.90
2023-01-30T04:58:43.243Z,21.43
2023-01-30T05:01:17.168Z,19.37
2023-01-30T05:03:43.981Z,17.80
2023-01-30T05:06:10.673Z,16.57
2023-01-30T05:08:37.487Z,18.10
2023-01-30T05:11:04.326Z,18.00
2023-01-30T05:13:31.033Z,17.00
2023-01-30T05:15:57.818Z,17.47
2023-01-30T05:18:24.653Z,17.00
2023-01-30T05:20:51.381Z,17.37
2023-01-30T05:23:18.142Z,17.03
2023-01-30T05:25:44.877Z,15.70
2023-01-30T05:28:11.592Z,15.93
2023-01-30T05:30:38.424Z,15.90
2023-01-30T05:33:05.252Z,15.57
2023-01-30T05:35:31.972Z,15.30
2023-01-30T05:37:59.517Z,13.30
2023-01-30T05:40:27.988Z,14.60
2023-01-30T05:42:54.727Z,15.37
2023-01-30T05:45:22.044Z,16.03
2023-01-30T05:47:56.290Z,14.97
2023-01-30T05:50:23.227Z,12.40
2023-01-30T05:52:49.954Z,13.30
2023-01-30T05:55:17.160Z,12.07
2023-01-30T05:57:44.497Z,11.80
2023-01-30T06:00:11.910Z,7.70
2023-01-30T06:02:38.733Z,7.93
2023-01-30T06:05:05.851Z,7.93
2023-01-30T06:07:32.641Z,6.57
2023-01-30T06:09:59.980Z,6.37
2023-01-30T06:12:26.721Z,6.60
2023-01-30T06:14:53.463Z,6.33
2023-01-30T06:17:20.166Z,5.70
2023-01-30T06:19:47.280Z,5.77
2023-01-30T06:22:13.986Z,5.50
2023-01-30T06:24:40.682Z,5.93
2023-01-30T06:27:07.394Z,6.07
2023-01-30T06:29:34.068Z,5.67
2023-01-30T06:32:00.733Z,5.07
2023-01-30T06:34:27.500Z,6.20
2023-01-30T06:36:54.428Z,5.93
2023-01-30T06:39:21.157Z,5.50
2023-01-30T06:41:47.938Z,5.90
2023-01-30T06:44:14.717Z,5.63
2023-01-30T06:46:41.840Z,6.80
2023-01-30T06:49:08.668Z,6.20
2023-01-30T06:51:35.779Z,6.70
2023-01-30T06:54:02.609Z,6.70
2023-01-30T06:56:29.348Z,5.93
2023-01-30T06:58:56.103Z,6.60
2023-01-30T07:01:22.928Z,6.03
2023-01-30T07:03:49.763Z,5.73
2023-01-30T07:06:16.535Z,5.57
2023-01-30T07:08:44.480Z,5.53
2023-01-30T07:11:11.371Z,6.07
2023-01-30T07:13:38.111Z,5.20
2023-01-30T07:16:08.027Z,5.80
2023-01-30T07:18:34.725Z,5.50
2023-01-30T07:21:01.517Z,5.80
2023-01-30T07:23:28.240Z,5.27
2023-01-30T07:25:55.533Z,4.90
2023-01-30T07:28:22.496Z,4.97
2023-01-30T07:30:52.804Z,5.40
2023-01-30T07:33:20.615Z,3.80
2023-01-30T07:35:47.782Z,4.27
2023-01-30T07:38:14.482Z,4.77
2023-01-30T07:40:41.243Z,4.10
2023-01-30T07:43:11.478Z,4.70
2023-01-30T07:45:39.508Z,4.97
2023-01-30T07:48:07.140Z,4.07
2023-01-30T07:50:33.942Z,4.07
2023-01-30T07:53:03.970Z,4.60
2023-01-30T07:55:30.711Z,3.57
2023-01-30T07:57:57.518Z,3.23
2023-01-30T08:00:24.476Z,4.40
2023-01-30T08:02:51.220Z,4.57
2023-01-30T08:05:18.233Z,3.40
2023-01-30T08:07:47.337Z,3.60
2023-01-30T08:10:14.685Z,3.67
2023-01-30T08:12:41.971Z,3.67
2023-01-30T08:15:10.422Z,3.97
2023-01-30T08:17:37.430Z,4.10
2023-01-30T08:20:04.792Z,4.57
2023-01-30T08:22:31.866Z,3.50
2023-01-30T08:24:58.682Z,3.60
2023-01-30T08:27:25.511Z,3.70
2023-01-30T08:29:52.310Z,3.90
2023-01-30T08:32:19.030Z,3.57
2023-01-30T08:34:45.743Z,3.83
2023-01-30T08:37:12.552Z,3.90
2023-01-30T08:39:39.205Z,3.43
2023-01-30T08:42:06.011Z,4.13
2023-01-30T08:44:32.678Z,3.63
2023-01-30T08:46:59.380Z,3.47
2023-01-30T08:49:26.164Z,3.87
2023-01-30T08:51:52.906Z,3.03
2023-01-30T08:54:19.611Z,4.47
2023-01-30T08:56:46.416Z,2.70
2023-01-30T08:59:13.257Z,3.10
2023-01-30T09:01:40.100Z,3.50
2023-01-30T09:04:06.870Z,3.00
2023-01-30T09:06:33.605Z,3.93
2023-01-30T09:09:00.819Z,3.70
2023-01-30T09:11:27.719Z,3.50
2023-01-30T09:13:54.466Z,3.50
2023-01-30T09:16:21.270Z,6.00
2023-01-30T09:18:48.006Z,4.93
2023-01-30T09:21:14.885Z,3.83
2023-01-30T09:23:41.794Z,3.70
2023-01-30T09:26:08.722Z,2.50
2023-01-30T09:28:35.753Z,3.43
2023-01-30T09:31:03.052Z,3.20
2023-01-30T09:33:30.066Z,3.63
2023-01-30T09:35:57.027Z,4.53
2023-01-30T09:38:23.724Z,3.93
2023-01-30T09:41:13.523Z,3.10
2023-01-30T09:44:03.875Z,4.00
2023-01-30T09:46:51.557Z,4.10
2023-01-30T09:49:30.692Z,3.60
2023-01-30T09:52:09.730Z,3.83
2023-01-30T09:54:42.622Z,3.60
2023-01-30T09:57:22.794Z,4.67
2023-01-30T10:00:13.667Z,3.73
2023-01-30T10:02:52.263Z,5.37
2023-01-30T10:05:19.477Z,3.00
2023-01-30T10:08:01.542Z,4.37
2023-01-30T10:11:09.677Z,4.30
2023-01-30T10:13:58.801Z,3.93
2023-01-30T10:16:35.112Z,4.17
2023-01-30T10:19:01.869Z,4.37
2023-01-30T10:21:52.268Z,3.10
2023-01-30T10:24:52.139Z,4.20
2023-01-30T10:27:21.001Z,3.43
2023-01-30T10:29:57.234Z,4.00
2023-01-30T10:32:43.910Z,3.60
2023-01-30T10:35:18.026Z,3.10
2023-01-30T10:38:04.331Z,3.60
2023-01-30T10:40:38.084Z,3.50
2023-01-30T10:43:45.878Z,3.53
2023-01-30T10:46:56.459Z,3.57
2023-01-30T10:49:49.856Z,3.50
2023-01-30T10:52:31.423Z,3.57
2023-01-30T10:55:04.341Z,4.03
2023-01-30T10:57:46.131Z,3.63
2023-01-30T11:00:36.169Z,4.27
2023-01-30T11:03:11.818Z,3.50
2023-01-30T11:05:51.918Z,3.90
2023-01-30T11:08:21.371Z,3.00
2023-01-30T11:10:48.829Z,3.33
2023-01-30T11:13:38.029Z,3.90
2023-01-30T11:16:08.304Z,4.20
2023-01-30T11:21:44.010Z,3.33
2023-01-30T11:24:17.747Z,4.43
2023-01-30T11:26:48.162Z,3.30
2023-01-30T11:29:31.449Z,3.60
2023-01-30T11:32:04.017Z,3.73
2023-01-30T11:34:31.056Z,4.13
2023-01-30T11:37:14.825Z,3.00
2023-01-30T11:39:50.903Z,3.73
2023-01-30T11:42:20.215Z,3.93
2023-01-30T11:44:47.076Z,3.90
2023-01-30T11:47:26.379Z,3.63
2023-01-30T11:49:59.308Z,4.10
2023-01-30T11:52:45.457Z,3.70
2023-01-30T11:55:18.739Z,3.50
2023-01-30T11:57:53.956Z,4.43
2023-01-30T12:00:24.255Z,4.50
2023-01-30T12:02:54.255Z,4.33
2023-01-30T12:05:28.459Z,4.20
2023-01-30T12:08:24.795Z,4.27
2023-01-30T12:11:01.536Z,4.67
2023-01-30T12:13:43.640Z,4.27
2023-01-30T12:16:46.716Z,4.40
2023-01-30T12:19:32.875Z,3.30
2023-01-30T12:22:18.990Z,3.60
2023-01-30T12:24:59.699Z,4.00
2023-01-30T12:28:01.313Z,3.97
2023-01-30T12:30:57.371Z,3.97
2023-01-30T12:33:30.820Z,4.90
2023-01-30T12:36:24.391Z,3.40
2023-01-30T12:39:05.927Z,2.43
2023-01-30T12:42:03.378Z,3.33
2023-01-30T12:45:11.976Z,3.70
2023-01-30T12:47:41.753Z,3.27
2023-01-30T12:50:21.199Z,3.00
2023-01-30T12:53:07.552Z,4.23
2023-01-30T12:55:45.355Z,2.50
2023-01-30T12:58:38.813Z,2.07
2023-01-30T13:01:45.308Z,2.80
2023-01-30T13:04:30.998Z,2.50
2023-01-30T13:07:25.080Z,2.73
2023-01-30T13:10:23.465Z,2.93
2023-01-30T13:13:11.821Z,3.13
2023-01-30T13:15:49.644Z,3.30
2023-01-30T13:18:50.797Z,3.70
2023-01-30T13:21:41.285Z,3.37
2023-01-30T13:24:07.979Z,3.07
2023-01-30T13:26:37.275Z,3.40
2023-01-30T13:29:20.578Z,2.90
2023-01-30T13:31:54.173Z,3.00
2023-01-30T13:34:36.110Z,4.20
2023-01-30T13:37:08.855Z,4.30
2023-01-30T13:39:42.747Z,3.57
2023-01-30T13:42:32.292Z,3.50
2023-01-30T13:45:01.366Z,3.33
2023-01-30T13:47:49.861Z,2.80
2023-01-30T13:50:31.714Z,3.17
2023-01-30T13:53:12.849Z,3.07
2023-01-30T13:55:51.365Z,3.23
2023-01-30T13:58:46.128Z,2.30
2023-01-30T14:01:14.547Z,3.00
2023-01-30T14:03:44.499Z,2.50
2023-01-30T14:06:26.431Z,2.40
2023-01-30T14:08:59.202Z,2.47
2023-01-30T14:11:38.939Z,2.83
2023-01-30T14:14:38.368Z,2.93
2023-01-30T14:17:23.950Z,2.97
2023-01-30T14:20:15.158Z,2.87
2023-01-30T14:22:59.265Z,2.07
2023-01-30T14:25:25.954Z,2.70
2023-01-30T14:27:59.336Z,2.77
2023-01-30T14:30:32.201Z,2.83
2023-01-30T14:33:02.050Z,3.60
2023-01-30T14:35:33.153Z,2.30
2023-01-30T14:38:10.702Z,2.87
2023-01-30T14:40:45.601Z,2.80
2023-01-30T14:43:12.377Z,2.97
2023-01-30T14:46:00.894Z,2.30
2023-01-30T14:48:37.631Z,2.37
2023-01-30T14:51:26.049Z,2.53
2023-01-30T14:54:00.809Z,2.47
2023-01-30T14:56:45.443Z,2.37
2023-01-30T14:59:24.090Z,3.10
2023-01-30T15:02:04.626Z,2.87
2023-01-30T15:04:40.825Z,2.73
2023-01-30T15:07:18.565Z,3.00
2023-01-30T15:09:55.874Z,2.73
2023-01-30T15:12:55.910Z,2.27
2023-01-30T15:16:01.224Z,2.60
2023-01-30T15:18:52.069Z,2.63
2023-01-30T15:21:25.061Z,2.97
2023-01-30T15:23:58.827Z,3.40
2023-01-30T15:26:49.847Z,3.90
2023-01-30T15:29:19.518Z,2.90
2023-01-30T15:32:00.145Z,2.70
2023-01-30T15:34:31.596Z,3.50
2023-01-30T15:36:58.464Z,3.23
2023-01-30T15:39:27.076Z,2.93
2023-01-30T15:41:59.090Z,2.53
2023-01-30T15:44:46.280Z,3.37
2023-01-30T15:47:43.340Z,3.40
2023-01-30T15:50:11.101Z,3.55
2023-01-30T15:52:44.932Z,3.60
2023-01-30T15:55:24.615Z,3.00
2023-01-30T15:57:57.150Z,2.90
2023-01-30T16:00:34.604Z,3.27
2023-01-30T16:03:04.199Z,2.93
2023-01-30T16:05:31.514Z,3.53
2023-01-30T16:08:09.459Z,4.40
2023-01-30T16:10:45.458Z,3.27
2023-01-30T16:13:12.229Z,3.93
2023-01-30T16:15:46.322Z,3.27
2023-01-30T16:18:25.028Z,3.97
2023-01-30T16:21:05.193Z,3.30
2023-01-30T16:23:42.885Z,3.47
2023-01-30T16:26:17.921Z,2.90
2023-01-30T16:28:45.217Z,3.80
2023-01-30T16:31:12.422Z,4.30
2023-01-30T16:33:39.381Z,4.50
2023-01-30T16:36:19.766Z,4.07
2023-01-30T16:38:48.035Z,3.80
2023-01-30T16:41:31.226Z,4.50
2023-01-30T16:44:20.872Z,5.53
2023-01-30T16:46:59.062Z,4.80
2023-01-30T16:49:43.199Z,4.80
2023-01-30T16:52:25.910Z,4.70
2023-01-30T16:54:59.311Z,3.90
2023-01-30T16:57:40.518Z,5.20
2023-01-30T17:00:22.825Z,3.73
2023-01-30T17:03:04.930Z,3.00
2023-01-30T17:05:39.862Z,4.33
2023-01-30T17:08:26.795Z,3.07
2023-01-30T17:10:55.288Z,3.63
2023-01-30T17:13:36.928Z,3.37
2023-01-30T17:16:23.672Z,3.40
2023-01-30T17:18:56.001Z,3.30
2023-01-30T17:21:25.264Z,3.90
2023-01-30T17:23:57.819Z,4.30
2023-01-30T17:26:24.705Z,3.20
2023-01-30T17:28:51.529Z,3.90
2023-01-30T17:31:20.280Z,3.77
2023-01-30T17:33:47.555Z,4.50
2023-01-30T17:36:23.084Z,4.30
2023-01-30T17:38:51.193Z,4.70
2023-01-30T17:41:28.375Z,4.80
2023-01-30T17:43:55.223Z,5.17
2023-01-30T17:46:26.976Z,4.77
2023-01-30T17:48:53.707Z,4.27
2023-01-30T17:51:20.455Z,4.13
2023-01-30T17:53:47.199Z,3.50
2023-01-30T17:56:32.554Z,4.17
2023-01-30T17:58:59.378Z,3.87
2023-01-30T18:01:26.627Z,3.93
2023-01-30T18:03:53.478Z,4.23
2023-01-30T18:06:20.223Z,3.87
2023-01-30T18:08:47.036Z,4.53
2023-01-30T18:11:14.908Z,4.57
2023-01-30T18:13:47.812Z,4.40
2023-01-30T18:16:32.836Z,4.57
2023-01-30T18:19:03.989Z,3.60
2023-01-30T18:21:31.193Z,4.17
2023-01-30T18:23:58.495Z,4.17
2023-01-30T18:26:25.871Z,3.70
2023-01-30T18:28:53.386Z,3.83
2023-01-30T18:31:23.808Z,4.23
2023-01-30T18:33:52.110Z,4.37
2023-01-30T18:36:20.355Z,4.60
2023-01-30T18:38:47.664Z,4.40
2023-01-30T18:41:20.455Z,3.63
2023-01-30T18:43:50.855Z,4.90
2023-01-30T18:46:18.250Z,5.87
2023-01-30T18:48:46.691Z,6.80
2023-01-30T18:51:28.235Z,5.33
2023-01-30T18:53:55.502Z,5.70
2023-01-30T18:56:25.275Z,5.60
2023-01-30T18:58:53.663Z,4.37
2023-01-30T19:01:23.620Z,4.90
2023-01-30T19:03:53.806Z,4.20
2023-01-30T19:06:20.653Z,4.30
2023-01-30T19:08:47.380Z,4.40
2023-01-30T19:11:36.697Z,4.70
2023-01-30T19:14:04.392Z,3.73
2023-01-30T19:16:33.084Z,4.83
2023-01-30T19:19:00.872Z,4.77
2023-01-30T19:21:28.467Z,4.50
2023-01-30T19:23:56.573Z,4.93
2023-01-30T19:26:24.941Z,4.73
2023-01-30T19:28:52.238Z,4.20
2023-01-30T19:31:21.371Z,3.63
2023-01-30T19:33:54.551Z,4.33
2023-01-30T19:36:23.494Z,4.17
2023-01-30T19:38:51.339Z,6.00
2023-01-30T19:41:28.281Z,5.10
2023-01-30T19:43:56.530Z,6.53
2023-01-30T19:46:23.653Z,5.03
2023-01-30T19:48:50.946Z,6.70
2023-01-30T19:51:20.564Z,7.50
2023-01-30T19:53:52.384Z,4.40
2023-01-30T19:56:21.872Z,6.77
2023-01-30T19:58:52.283Z,8.00
2023-01-30T20:01:21.216Z,4.93
2023-01-30T20:03:48.793Z,4.10
2023-01-30T20:06:17.079Z,5.10
2023-01-30T20:08:45.422Z,4.67
2023-01-30T20:11:14.654Z,4.30
2023-01-30T20:13:42.955Z,4.80
2023-01-30T20:16:31.153Z,4.47
2023-01-30T20:19:04.193Z,3.70
2023-01-30T20:21:31.379Z,4.13
2023-01-30T20:23:59.939Z,4.60
2023-01-30T20:26:30.421Z,4.20
2023-01-30T20:28:58.186Z,3.97
2023-01-30T20:31:28.170Z,4.50
2023-01-30T20:33:57.614Z,6.20
2023-01-30T20:36:27.132Z,4.70
2023-01-30T20:38:55.486Z,5.50
2023-01-30T20:41:26.252Z,5.20
2023-01-30T20:43:57.321Z,4.47
2023-01-30T20:46:27.327Z,3.83
2023-01-30T20:48:55.804Z,4.30
2023-01-30T20:51:25.381Z,4.20
2023-01-30T20:53:54.464Z,4.17
2023-01-30T20:56:22.752Z,4.90
2023-01-30T20:58:49.680Z,4.17
2023-01-30T21:01:22.430Z,3.90
2023-01-30T21:03:50.987Z,4.13
2023-01-30T21:06:41.044Z,4.20
2023-01-30T21:09:17.335Z,4.80
2023-01-30T21:11:44.538Z,4.10
2023-01-30T21:14:12.931Z,4.57
2023-01-30T21:16:40.448Z,5.00
2023-01-30T21:19:13.672Z,4.30
2023-01-30T21:21:55.070Z,4.67
2023-01-30T21:24:25.557Z,5.43
2023-01-30T21:26:53.194Z,3.90
2023-01-30T21:29:23.193Z,4.83
2023-01-30T21:31:50.826Z,4.70
2023-01-30T21:34:17.740Z,4.13
2023-01-30T21:37:04.467Z,4.70
2023-01-30T21:39:50.108Z,4.23
2023-01-30T21:42:35.729Z,5.17
2023-01-30T21:45:02.576Z,5.93
2023-01-30T21:47:29.822Z,4.03
2023-01-30T21:49:56.556Z,4.90
2023-01-30T21:52:23.302Z,4.33
2023-01-30T21:54:50.011Z,4.50
2023-01-30T21:57:16.753Z,4.37
2023-01-30T21:59:43.470Z,4.23
2023-01-30T22:02:10.804Z,4.87
2023-01-30T22:04:37.700Z,4.20
2023-01-30T22:07:06.863Z,4.37
2023-01-30T22:09:33.755Z,4.87
2023-01-30T22:12:00.522Z,3.60
2023-01-30T22:14:27.527Z,5.40
2023-01-30T22:16:54.643Z,6.10
2023-01-30T22:19:21.401Z,7.80
2023-01-30T22:21:48.108Z,8.03
2023-01-30T22:24:15.313Z,8.83
2023-01-30T22:26:42.195Z,6.20
2023-01-30T22:29:09.419Z,4.93
2023-01-30T22:31:40.350Z,6.53
2023-01-30T22:34:07.612Z,4.27
2023-01-30T22:36:35.236Z,5.27
2023-01-30T22:39:02.942Z,4.03
2023-01-30T22:41:32.625Z,3.60
2023-01-30T22:44:00.683Z,6.50
2023-01-30T22:46:38.727Z,4.90
2023-01-30T22:49:06.792Z,3.90
2023-01-30T22:51:39.764Z,4.20
2023-01-30T22:54:10.142Z,4.87
2023-01-30T22:56:39.829Z,5.10
2023-01-30T22:59:06.920Z,4.80
2023-01-30T23:01:37.156Z,4.30
2023-01-30T23:04:12.551Z,4.53
2023-01-30T23:06:40.517Z,5.17
2023-01-30T23:09:08.893Z,4.13
2023-01-30T23:11:44.504Z,4.53
2023-01-30T23:14:17.998Z,4.63
2023-01-30T23:16:45.183Z,3.83
2023-01-30T23:19:13.470Z,4.00
2023-01-30T23:21:42.494Z,4.63
2023-01-30T23:24:17.802Z,5.30
2023-01-30T23:26:47.006Z,4.30
2023-01-30T23:29:15.802Z,4.17
2023-01-30T23:31:44.375Z,4.30
2023-01-30T23:34:16.588Z,3.70
2023-01-30T23:36:43.511Z,4.47
2023-01-30T23:39:12.021Z,3.97
2023-01-30T23:41:39.145Z,4.03
2023-01-30T23:44:06.344Z,5.80
2023-01-30T23:46:36.333Z,3.90
2023-01-30T23:51:32.708Z,4.10
2023-01-30T23:53:59.993Z,3.80
2023-01-30T23:56:28.547Z,3.93
2023-01-30T23:58:56.318Z,4.10
